createdAt,value
2022-12-23T00:01:54.881Z,21.20
2022-12-23T00:04:22.139Z,20.40
2022-12-23T00:06:49.451Z,21.90
2022-12-23T00:09:17.012Z,21.00
2022-12-23T00:12:12.535Z,20.30
2022-12-23T00:14:57.321Z,20.70
2022-12-23T00:17:25.080Z,20.80
2022-12-23T00:19:52.001Z,20.70
2022-12-23T00:22:19.201Z,21.60
2022-12-23T00:24:46.345Z,20.40
2022-12-23T00:27:13.364Z,21.20
2022-12-23T00:29:40.454Z,21.00
2022-12-23T00:32:07.682Z,22.00
2022-12-23T00:34:34.656Z,22.10
2022-12-23T00:37:01.685Z,22.90
2022-12-23T00:39:47.289Z,21.50
2022-12-23T00:42:33.376Z,23.00
2022-12-23T00:45:15.971Z,23.50
2022-12-23T00:48:00.820Z,23.20
2022-12-23T00:50:28.274Z,23.70
2022-12-23T00:52:55.274Z,25.40
2022-12-23T00:55:22.397Z,24.50
2022-12-23T00:57:49.656Z,25.30
2022-12-23T01:00:18.182Z,25.40
2022-12-23T01:03:03.195Z,25.50
2022-12-23T01:05:39.843Z,25.00
2022-12-23T01:08:08.452Z,25.70
2022-12-23T01:10:37.625Z,25.90
2022-12-23T01:13:04.781Z,25.70
2022-12-23T01:15:32.145Z,26.50
2022-12-23T01:17:59.112Z,25.80
2022-12-23T01:20:26.318Z,27.00
2022-12-23T01:22:53.566Z,26.70
2022-12-23T01:25:20.611Z,28.10
2022-12-23T01:27:47.596Z,27.10
2022-12-23T01:30:15.304Z,27.30
2022-12-23T01:32:42.404Z,28.20
2022-12-23T01:35:10.199Z,26.80
2022-12-23T01:37:37.388Z,27.30
2022-12-23T01:40:05.289Z,28.20
2022-12-23T01:42:47.863Z,26.80
2022-12-23T01:45:20.585Z,27.60
2022-12-23T01:47:53.359Z,28.40
2022-12-23T01:50:25.194Z,27.60
2022-12-23T01:53:00.495Z,28.70
2022-12-23T01:55:36.076Z,29.00
2022-12-23T01:58:09.989Z,27.40
2022-12-23T02:00:56.103Z,27.40
2022-12-23T02:03:40.787Z,28.20
2022-12-23T02:06:27.658Z,27.00
2022-12-23T02:09:12.315Z,27.80
2022-12-23T02:11:56.037Z,27.60
2022-12-23T02:14:56.721Z,28.40
2022-12-23T02:17:32.462Z,27.10
2022-12-23T02:20:26.910Z,27.40
2022-12-23T02:23:20.218Z,27.70
2022-12-23T02:26:03.552Z,25.80
2022-12-23T02:28:54.017Z,27.80
2022-12-23T02:31:29.290Z,27.20
2022-12-23T02:34:02.461Z,27.10
2022-12-23T02:36:40.362Z,25.70
2022-12-23T02:39:12.008Z,26.50
2022-12-23T02:41:49.970Z,27.30
2022-12-23T02:44:35.291Z,26.30
2022-12-23T02:47:05.843Z,26.40
2022-12-23T02:49:38.019Z,26.60
2022-12-23T02:52:11.511Z,28.20
2022-12-23T02:54:45.253Z,27.10
2022-12-23T02:57:15.965Z,29.00
2022-12-23T02:59:48.093Z,26.60
2022-12-23T03:02:15.356Z,27.00
2022-12-23T03:04:43.221Z,27.50
2022-12-23T03:07:18.658Z,27.30
2022-12-23T03:09:59.521Z,27.20
2022-12-23T03:12:34.769Z,26.30
2022-12-23T03:15:14.019Z,25.90
2022-12-23T03:17:58.692Z,25.30
2022-12-23T03:20:29.742Z,23.50
2022-12-23T03:23:04.974Z,23.50
2022-12-23T03:25:37.114Z,23.20
2022-12-23T03:28:12.055Z,23.10
2022-12-23T03:30:43.204Z,24.30
2022-12-23T03:33:16.611Z,23.20
2022-12-23T03:35:49.725Z,24.10
2022-12-23T03:38:20.341Z,22.60
2022-12-23T03:40:51.081Z,23.60
2022-12-23T03:43:24.549Z,22.70
2022-12-23T03:45:55.376Z,23.20
2022-12-23T03:48:28.261Z,22.90
2022-12-23T03:51:01.968Z,22.40
2022-12-23T03:53:33.964Z,23.70
2022-12-23T03:56:05.583Z,23.80
2022-12-23T03:58:39.606Z,23.50
2022-12-23T04:01:19.193Z,24.00
2022-12-23T04:03:56.321Z,24.40
2022-12-23T04:06:25.761Z,23.60
2022-12-23T04:08:53.800Z,23.20
2022-12-23T04:11:21.267Z,23.30
2022-12-23T04:13:49.840Z,22.50
2022-12-23T04:16:17.388Z,23.50
2022-12-23T04:18:44.572Z,23.90
2022-12-23T04:21:11.751Z,24.50
2022-12-23T04:23:40.506Z,22.70
2022-12-23T04:26:07.704Z,23.70
2022-12-23T04:28:34.849Z,22.90
2022-12-23T04:31:01.886Z,23.30
2022-12-23T04:33:28.878Z,22.60
2022-12-23T04:35:56.154Z,23.10
2022-12-23T04:38:23.186Z,23.00
2022-12-23T04:40:50.145Z,22.90
2022-12-23T04:43:17.384Z,23.00
2022-12-23T04:45:44.433Z,23.00
2022-12-23T04:48:11.512Z,23.40
2022-12-23T04:50:38.741Z,22.70
2022-12-23T04:53:05.778Z,23.10
2022-12-23T04:55:32.727Z,22.90
2022-12-23T04:57:59.978Z,23.70
2022-12-23T05:00:27.244Z,24.00
2022-12-23T05:02:54.364Z,22.20
2022-12-23T05:05:22.586Z,23.60
2022-12-23T05:07:51.697Z,22.60
2022-12-23T05:10:19.049Z,22.90
2022-12-23T05:12:46.158Z,22.00
2022-12-23T05:15:14.186Z,22.70
2022-12-23T05:17:41.275Z,20.90
2022-12-23T05:20:11.438Z,21.60
2022-12-23T05:22:38.454Z,22.30
2022-12-23T05:25:06.136Z,21.00
2022-12-23T05:27:33.474Z,21.70
2022-12-23T05:30:00.546Z,21.90
2022-12-23T05:32:27.722Z,23.20
2022-12-23T05:34:55.142Z,22.90
2022-12-23T05:37:22.884Z,22.70
2022-12-23T05:39:49.930Z,22.30
2022-12-23T05:42:19.512Z,21.90
2022-12-23T05:44:46.544Z,21.70
2022-12-23T05:47:14.039Z,22.20
2022-12-23T05:49:41.105Z,22.20
2022-12-23T05:52:08.550Z,23.30
2022-12-23T05:54:35.680Z,22.20
2022-12-23T05:57:02.869Z,21.90
2022-12-23T05:59:31.543Z,22.00
2022-12-23T06:01:59.114Z,22.20
2022-12-23T06:04:26.697Z,21.80
2022-12-23T06:06:53.926Z,23.00
2022-12-23T06:09:21.061Z,23.00
2022-12-23T06:11:48.247Z,22.80
2022-12-23T06:14:15.655Z,23.10
2022-12-23T06:16:42.784Z,22.60
2022-12-23T06:19:09.887Z,23.20
2022-12-23T06:21:36.913Z,23.70
2022-12-23T06:24:03.999Z,23.60
2022-12-23T06:26:31.309Z,23.70
2022-12-23T06:28:58.279Z,24.50
2022-12-23T06:31:25.354Z,23.40
2022-12-23T06:33:52.759Z,23.80
2022-12-23T06:36:20.071Z,22.60
2022-12-23T06:38:47.163Z,22.80
2022-12-23T06:41:14.625Z,21.90
2022-12-23T06:43:42.097Z,21.70
2022-12-23T06:46:09.311Z,22.50
2022-12-23T06:48:36.889Z,23.00
2022-12-23T06:51:04.040Z,23.30
2022-12-23T06:53:31.203Z,23.40
2022-12-23T06:56:04.292Z,23.20
2022-12-23T06:58:32.050Z,23.10
2022-12-23T07:00:59.429Z,24.90
2022-12-23T07:03:26.711Z,23.90
2022-12-23T07:05:54.438Z,25.00
2022-12-23T07:08:22.199Z,25.70
2022-12-23T07:10:50.153Z,24.70
2022-12-23T07:13:17.990Z,25.00
2022-12-23T07:15:45.303Z,23.70
2022-12-23T07:18:12.284Z,23.90
2022-12-23T07:20:39.263Z,24.10
2022-12-23T07:23:06.418Z,23.40
2022-12-23T07:25:33.385Z,23.40
2022-12-23T07:28:00.631Z,23.90
2022-12-23T07:30:28.802Z,23.20
2022-12-23T07:32:56.151Z,23.70
2022-12-23T07:35:23.088Z,21.70
2022-12-23T07:37:55.544Z,22.40
2022-12-23T07:40:23.135Z,21.50
2022-12-23T07:42:55.299Z,21.90
2022-12-23T07:45:22.852Z,21.00
2022-12-23T07:47:53.332Z,20.20
2022-12-23T07:50:20.716Z,21.60
2022-12-23T07:52:47.990Z,21.30
2022-12-23T07:55:15.158Z,22.00
2022-12-23T07:57:42.402Z,21.40
2022-12-23T08:00:14.251Z,19.90
2022-12-23T08:02:42.232Z,20.60
2022-12-23T08:05:11.010Z,20.90
2022-12-23T08:07:38.385Z,20.30
2022-12-23T08:10:05.836Z,20.80
2022-12-23T08:12:33.264Z,20.40
2022-12-23T08:15:00.231Z,20.70
2022-12-23T08:17:31.870Z,21.20
2022-12-23T08:19:59.044Z,20.30
2022-12-23T08:22:26.065Z,19.40
2022-12-23T08:24:53.662Z,19.90
2022-12-23T08:27:22.536Z,20.70
2022-12-23T08:29:49.683Z,21.30
2022-12-23T08:32:16.741Z,19.70
2022-12-23T08:34:44.357Z,19.40
2022-12-23T08:37:11.480Z,20.00
2022-12-23T08:39:38.566Z,18.90
2022-12-23T08:42:05.822Z,18.60
2022-12-23T08:44:33.088Z,19.10
2022-12-23T08:47:00.149Z,17.90
2022-12-23T08:49:27.286Z,17.80
2022-12-23T08:51:54.349Z,18.30
2022-12-23T08:54:22.413Z,19.00
2022-12-23T08:56:49.662Z,17.60
2022-12-23T08:59:19.908Z,17.40
2022-12-23T09:01:47.689Z,17.70
2022-12-23T09:04:14.929Z,18.20
2022-12-23T09:06:43.490Z,17.80
2022-12-23T09:09:12.112Z,18.90
2022-12-23T09:11:39.847Z,18.90
2022-12-23T09:14:08.871Z,19.30
2022-12-23T09:16:36.089Z,18.80
2022-12-23T09:19:03.844Z,18.80
2022-12-23T09:21:31.196Z,18.20
2022-12-23T09:23:58.388Z,17.30
2022-12-23T09:26:27.684Z,18.90
2022-12-23T09:28:56.816Z,19.30
2022-12-23T09:31:32.586Z,19.70
2022-12-23T09:34:03.158Z,19.40
2022-12-23T09:36:30.477Z,19.30
2022-12-23T09:38:59.562Z,19.60
2022-12-23T09:41:42.916Z,19.00
2022-12-23T09:44:34.851Z,19.80
2022-12-23T09:47:06.295Z,19.40
2022-12-23T09:49:33.834Z,19.00
2022-12-23T09:52:05.535Z,20.00
2022-12-23T09:54:42.516Z,19.70
2022-12-23T09:57:19.822Z,19.20
2022-12-23T10:00:02.765Z,18.90
2022-12-23T10:02:44.105Z,19.30
2022-12-23T10:05:23.770Z,19.30
2022-12-23T10:07:54.459Z,20.50
2022-12-23T10:10:30.534Z,20.30
2022-12-23T10:12:59.830Z,19.80
2022-12-23T10:15:31.167Z,21.40
2022-12-23T10:18:03.721Z,20.50
2022-12-23T10:20:40.472Z,20.30
2022-12-23T10:23:12.201Z,21.10
2022-12-23T10:25:47.723Z,21.00
2022-12-23T10:28:16.342Z,20.50
2022-12-23T10:31:17.321Z,20.20
2022-12-23T10:33:43.409Z,20.10
2022-12-23T10:36:21.107Z,21.00
2022-12-23T10:39:00.836Z,21.10
2022-12-23T10:41:39.241Z,21.50
2022-12-23T10:44:25.876Z,20.70
2022-12-23T10:47:03.059Z,20.60
2022-12-23T10:49:43.493Z,21.40
2022-12-23T10:52:16.699Z,20.30
2022-12-23T10:54:46.488Z,22.10
2022-12-23T10:57:16.037Z,21.80
2022-12-23T10:59:43.155Z,19.80
2022-12-23T11:02:29.521Z,19.70
2022-12-23T11:04:56.788Z,21.30
2022-12-23T11:07:43.879Z,20.90
2022-12-23T11:10:19.485Z,21.10
2022-12-23T11:12:49.291Z,21.50
2022-12-23T11:15:31.183Z,21.80
2022-12-23T11:18:17.674Z,23.00
2022-12-23T11:20:47.021Z,23.50
2022-12-23T11:23:27.070Z,23.30
2022-12-23T11:26:03.797Z,22.90
2022-12-23T11:28:31.708Z,22.40
2022-12-23T11:31:05.678Z,22.50
2022-12-23T11:33:35.785Z,22.70
2022-12-23T11:36:15.993Z,23.40
2022-12-23T11:38:52.282Z,22.00
2022-12-23T11:41:24.854Z,21.70
2022-12-23T11:43:58.916Z,21.60
2022-12-23T11:46:30.610Z,22.30
2022-12-23T11:49:18.660Z,21.70
2022-12-23T11:51:46.586Z,22.10
2022-12-23T11:54:19.368Z,23.80
2022-12-23T11:56:49.879Z,22.90
2022-12-23T11:59:32.458Z,22.90
2022-12-23T12:02:03.206Z,24.30
2022-12-23T12:04:35.374Z,24.50
2022-12-23T12:07:04.921Z,24.10
2022-12-23T12:09:33.995Z,24.70
2022-12-23T12:12:07.014Z,24.10
2022-12-23T12:14:42.873Z,23.90
2022-12-23T12:17:17.642Z,25.10
2022-12-23T12:19:58.169Z,26.20
2022-12-23T12:22:33.909Z,25.70
2022-12-23T12:25:06.408Z,25.20
2022-12-23T12:27:40.683Z,24.50
2022-12-23T12:30:13.711Z,26.30
2022-12-23T12:32:48.142Z,25.70
2022-12-23T12:35:20.092Z,26.10
2022-12-23T12:37:53.157Z,24.90
2022-12-23T12:40:29.318Z,26.80
2022-12-23T12:43:01.025Z,25.70
2022-12-23T12:45:34.928Z,26.80
2022-12-23T12:48:18.755Z,26.90
2022-12-23T12:50:55.722Z,26.40
2022-12-23T12:53:23.942Z,25.60
2022-12-23T12:55:57.254Z,25.40
2022-12-23T12:58:25.784Z,25.00
2022-12-23T13:01:04.787Z,26.20
2022-12-23T13:03:51.487Z,25.00
2022-12-23T13:06:28.166Z,25.60
2022-12-23T13:09:06.079Z,25.00
2022-12-23T13:11:45.544Z,24.20
2022-12-23T13:14:24.354Z,25.10
2022-12-23T13:17:01.557Z,24.80
2022-12-23T13:19:35.781Z,25.50
2022-12-23T13:22:10.193Z,25.30
2022-12-23T13:24:47.518Z,24.30
2022-12-23T13:27:20.630Z,25.30
2022-12-23T13:30:06.504Z,25.40
2022-12-23T13:33:05.403Z,25.40
2022-12-23T13:35:44.805Z,24.80
2022-12-23T13:38:24.698Z,24.00
2022-12-23T13:41:00.544Z,24.30
2022-12-23T13:43:37.172Z,25.00
2022-12-23T13:46:10.626Z,22.70
2022-12-23T13:48:42.130Z,24.20
2022-12-23T13:51:18.945Z,23.80
2022-12-23T13:54:03.871Z,22.40
2022-12-23T13:56:41.172Z,23.40
2022-12-23T13:59:13.719Z,21.90
2022-12-23T14:01:47.933Z,22.40
2022-12-23T14:04:34.607Z,21.50
2022-12-23T14:07:04.183Z,21.60
2022-12-23T14:09:37.160Z,21.40
2022-12-23T14:12:24.259Z,22.10
2022-12-23T14:15:05.875Z,21.30
2022-12-23T14:17:43.143Z,21.80
2022-12-23T14:20:29.830Z,22.20
2022-12-23T14:23:07.605Z,22.30
2022-12-23T14:25:53.128Z,23.00
2022-12-23T14:28:43.795Z,23.00
2022-12-23T14:31:32.149Z,22.70
2022-12-23T14:34:06.087Z,22.40
2022-12-23T14:36:33.523Z,22.10
2022-12-23T14:39:32.739Z,22.20
2022-12-23T14:42:06.506Z,22.70
2022-12-23T14:44:51.811Z,21.30
2022-12-23T14:47:40.442Z,22.20
2022-12-23T14:50:42.576Z,21.40
2022-12-23T14:53:24.776Z,21.80
2022-12-23T14:56:10.757Z,22.20
2022-12-23T14:59:03.675Z,22.70
2022-12-23T15:01:39.005Z,21.50
2022-12-23T15:04:17.145Z,23.10
2022-12-23T15:06:46.600Z,21.00
2022-12-23T15:09:24.230Z,21.00
2022-12-23T15:11:51.817Z,22.10
2022-12-23T15:14:29.834Z,20.20
2022-12-23T15:16:56.970Z,20.60
2022-12-23T15:19:26.442Z,20.90
2022-12-23T15:22:17.880Z,19.30
2022-12-23T15:24:48.580Z,19.90
2022-12-23T15:27:30.220Z,20.00
2022-12-23T15:29:58.322Z,18.70
2022-12-23T15:32:26.772Z,19.30
2022-12-23T15:34:58.320Z,17.80
2022-12-23T15:37:30.177Z,18.80
2022-12-23T15:40:04.851Z,17.60
2022-12-23T15:42:38.539Z,17.50
2022-12-23T15:45:28.085Z,18.40
2022-12-23T15:47:55.201Z,18.20
2022-12-23T15:50:22.693Z,19.60
2022-12-23T15:52:51.800Z,18.50
2022-12-23T15:55:24.859Z,18.80
2022-12-23T15:57:53.433Z,19.30
2022-12-23T16:00:25.316Z,18.50
2022-12-23T16:03:04.760Z,18.30
2022-12-23T16:05:37.598Z,19.40
2022-12-23T16:08:29.782Z,16.50
2022-12-23T16:11:08.037Z,17.10
2022-12-23T16:13:36.230Z,18.10
2022-12-23T16:16:31.436Z,17.00
2022-12-23T16:18:58.672Z,17.40
2022-12-23T16:21:29.331Z,17.50
2022-12-23T16:23:57.120Z,18.00
2022-12-23T16:26:25.620Z,16.90
2022-12-23T16:28:56.320Z,17.70
2022-12-23T16:31:25.189Z,17.80
2022-12-23T16:33:55.592Z,18.00
2022-12-23T16:36:34.034Z,17.70
2022-12-23T16:39:13.094Z,19.20
2022-12-23T16:41:40.659Z,19.40
2022-12-23T16:44:07.996Z,19.40
2022-12-23T16:46:38.776Z,20.30
2022-12-23T16:49:11.029Z,20.40
2022-12-23T16:51:40.439Z,20.90
2022-12-23T16:54:07.977Z,20.40
2022-12-23T16:56:37.920Z,20.30
2022-12-23T16:59:05.432Z,21.20
2022-12-23T17:01:34.699Z,21.70
2022-12-23T17:04:02.927Z,22.00
2022-12-23T17:06:30.283Z,21.90
2022-12-23T17:08:57.921Z,22.50
2022-12-23T17:11:32.489Z,23.00
2022-12-23T17:14:04.630Z,22.70
2022-12-23T17:16:32.947Z,22.60
2022-12-23T17:19:00.249Z,22.60
2022-12-23T17:21:34.114Z,21.50
2022-12-23T17:24:07.698Z,22.70
2022-12-23T17:26:34.805Z,22.40
2022-12-23T17:29:04.661Z,22.40
2022-12-23T17:31:32.870Z,21.30
2022-12-23T17:34:00.041Z,20.90
2022-12-23T17:36:27.341Z,20.60
2022-12-23T17:38:54.575Z,20.00
2022-12-23T17:41:27.936Z,19.70
2022-12-23T17:43:55.092Z,19.60
2022-12-23T17:46:23.096Z,19.90
2022-12-23T17:48:50.364Z,19.60
2022-12-23T17:51:19.393Z,19.70
2022-12-23T17:53:47.495Z,20.70
2022-12-23T17:56:19.266Z,18.50
2022-12-23T17:58:48.183Z,19.20
2022-12-23T18:01:22.475Z,19.80
